FNUB

Lubango Airport

Lubango, Angola
METAR FNUB 181700Z 36006KT CAVOK 24/09 Q1022
Observed Flight Rules
Sep-18 @ 17:00 UTC (12 hours ago) Visual Flight Rules
Wind Visibility Clouds
360° at 6 knots 10,000+ meters
  • Clear skies
Temperatures Readings
Current 24°C / 75°F
Dewpoint 9°C / 48°F
Humidity 39%
Altimeter 30.18" Hg
Pressure 1022 hPa
Elevation 1761
METAR FNUB 181700Z 36006KT CAVOK 24/09 Q1022
Observed Flight Rules
Sep-18 @ 17:00 UTC
(12 hours ago)
VFR
Wind Visibility
360° at 6 knots 10,000+ meters
Clouds
  • Clear skies
Temperature Dewpoint
24°C / 75°F 9°C / 48°F
Humidity Altimeter Pressure
39% 30.18" Hg 1022 hPa